Time;durP1;ratioP1;P1;durP2;ratioP2;P2;SDS_P1;SDS_P2;PMS_P1;PMS_P2;Temp;Humidity;BMP_temperature;BMP_pressure;BME280_temperature;BME280_humidity;BME280_pressure;Samples;Min_cycle;Max_cycle;Signal;HPM_P1;HPM_P2
2021/06/02 00:01:54;;;;;;;4.60;4.10;;;11.50;99.90;;;;;;5066371;28;20729;-71
2021/06/02 00:04:23;;;;;;;4.30;3.97;;;11.50;99.90;;;;;;5066190;28;20277;-71
2021/06/02 00:06:51;;;;;;;6.40;4.22;;;11.50;99.90;;;;;;5066592;28;20466;-71
2021/06/02 00:09:18;;;;;;;4.93;4.43;;;11.50;99.90;;;;;;5066432;28;20221;-71
2021/06/02 00:11:46;;;;;;;3.85;3.55;;;11.40;99.90;;;;;;5066924;28;20211;-71
2021/06/02 00:14:13;;;;;;;4.25;3.80;;;11.30;99.90;;;;;;5067058;28;20365;-71
2021/06/02 00:16:40;;;;;;;4.73;4.23;;;11.20;99.90;;;;;;5044487;28;20654;-71
2021/06/02 00:19:09;;;;;;;3.72;3.40;;;11.20;99.90;;;;;;5030079;28;20482;-71
2021/06/02 00:21:35;;;;;;;4.13;3.80;;;11.30;99.90;;;;;;5028963;28;20532;-71
2021/06/02 00:24:02;;;;;;;4.63;4.07;;;11.30;99.90;;;;;;5029246;28;20217;-71
2021/06/02 00:26:34;;;;;;;4.65;3.85;;;11.30;99.90;;;;;;5041556;28;20278;-71
2021/06/02 00:29:06;;;;;;;4.57;3.83;;;11.30;99.90;;;;;;5062710;28;20188;-71
2021/06/02 00:31:33;;;;;;;8.67;4.00;;;11.20;99.90;;;;;;5063425;28;20952;-71
2021/06/02 00:34:02;;;;;;;4.90;3.85;;;11.20;99.90;;;;;;5063802;28;20501;-71
2021/06/02 00:36:29;;;;;;;4.90;3.70;;;11.20;99.90;;;;;;5063063;28;20208;-71
2021/06/02 00:38:56;;;;;;;4.05;3.65;;;11.10;99.90;;;;;;5068282;28;20212;-71
2021/06/02 00:41:24;;;;;;;5.03;4.10;;;11.00;99.90;;;;;;5070658;28;20246;-71
2021/06/02 00:43:51;;;;;;;4.57;3.70;;;11.10;99.90;;;;;;5071904;28;20274;-71
2021/06/02 00:46:22;;;;;;;4.10;3.70;;;11.10;99.90;;;;;;5077231;28;20961;-71
2021/06/02 00:48:48;;;;;;;4.10;3.70;;;11.10;99.90;;;;;;5075666;28;20291;-71
2021/06/02 00:51:18;;;;;;;4.13;3.30;;;11.00;99.90;;;;;;5076103;28;20200;-71
2021/06/02 00:53:44;;;;;;;5.30;4.00;;;10.90;99.90;;;;;;5076843;28;20220;-71
2021/06/02 00:56:13;;;;;;;3.63;3.33;;;10.80;99.90;;;;;;5076903;28;20207;-71
2021/06/02 00:58:46;;;;;;;4.80;3.40;;;10.80;99.90;;;;;;5075966;28;20973;-70
2021/06/02 01:01:13;;;;;;;4.45;3.70;;;10.80;99.90;;;;;;5076941;28;20195;-70
2021/06/02 01:03:42;;;;;;;4.18;3.80;;;10.80;99.90;;;;;;5076623;28;20216;-71
2021/06/02 01:06:08;;;;;;;4.10;3.70;;;10.70;99.90;;;;;;5076972;28;20257;-70
2021/06/02 01:08:37;;;;;;;4.20;3.80;;;10.70;99.90;;;;;;5064789;28;20193;-71
2021/06/02 01:11:04;;;;;;;4.38;3.83;;;10.70;99.90;;;;;;5067570;28;20265;-71
2021/06/02 01:13:34;;;;;;;7.40;3.63;;;10.70;99.90;;;;;;5066669;28;20212;-70
2021/06/02 01:16:00;;;;;;;3.72;3.42;;;10.60;99.90;;;;;;5068341;28;20189;-70
2021/06/02 01:18:27;;;;;;;3.80;3.50;;;10.60;99.90;;;;;;5075714;28;20196;-70
2021/06/02 01:20:59;;;;;;;3.78;3.40;;;10.50;99.90;;;;;;5076766;28;20220;-71
2021/06/02 01:23:28;;;;;;;4.18;3.67;;;10.50;99.90;;;;;;5076961;28;20581;-71
2021/06/02 01:25:55;;;;;;;5.97;3.70;;;10.40;99.90;;;;;;5076834;28;20200;-71
2021/06/02 01:28:21;;;;;;;4.07;3.30;;;10.30;99.90;;;;;;5075977;28;20512;-71
2021/06/02 01:30:49;;;;;;;3.53;3.22;;;10.30;99.90;;;;;;5076629;28;20200;-71
2021/06/02 01:33:40;;;;;;;4.35;3.80;;;10.30;99.90;;;;;;5076575;28;20550;-71
2021/06/02 01:36:09;;;;;;;4.13;3.72;;;10.30;99.90;;;;;;5076607;28;20196;-71
2021/06/02 01:39:09;;;;;;;4.03;3.63;;;10.20;99.90;;;;;;5075503;28;20668;-71
2021/06/02 01:42:02;;;;;;;8.30;3.80;;;10.20;99.90;;;;;;5076276;28;20200;-71
2021/06/02 01:45:13;;;;;;;4.78;4.00;;;10.20;99.90;;;;;;5076642;28;20227;-71
2021/06/02 01:48:07;;;;;;;3.63;3.25;;;10.30;99.90;;;;;;5076271;28;20185;-71
2021/06/02 01:50:50;;;;;;;4.30;3.15;;;10.20;99.90;;;;;;5076762;28;20216;-71
2021/06/02 01:53:45;;;;;;;5.85;3.95;;;10.20;99.90;;;;;;5076433;28;20193;-71
2021/06/02 01:57:03;;;;;;;3.60;3.30;;;10.10;99.90;;;;;;5074197;28;20189;-71
2021/06/02 02:00:02;;;;;;;4.28;3.40;;;10.10;99.90;;;;;;5072790;28;20224;-71
2021/06/02 02:02:59;;;;;;;6.07;3.85;;;10.00;99.90;;;;;;5073359;28;20266;-71
2021/06/02 02:05:50;;;;;;;3.63;3.33;;;9.90;99.90;;;;;;5073143;28;20196;-71
2021/06/02 02:08:45;;;;;;;3.83;3.50;;;9.90;99.90;;;;;;5072883;28;20663;-71
2021/06/02 02:11:27;;;;;;;4.03;3.63;;;9.90;99.90;;;;;;5061708;28;20933;-71
2021/06/02 02:14:39;;;;;;;5.70;3.38;;;9.80;99.90;;;;;;5072962;28;20250;-71
2021/06/02 02:17:51;;;;;;;6.35;3.42;;;9.80;99.90;;;;;;5072831;28;20201;-71
2021/06/02 02:20:24;;;;;;;4.10;3.53;;;9.70;99.90;;;;;;5027385;28;20722;-71
2021/06/02 02:23:12;;;;;;;4.60;3.70;;;9.70;99.90;;;;;;5072881;28;20208;-71
2021/06/02 02:25:54;;;;;;;5.07;3.53;;;9.60;99.90;;;;;;5073001;28;20208;-70
2021/06/02 02:28:50;;;;;;;3.70;3.40;;;9.60;99.90;;;;;;5072526;28;20201;-71
2021/06/02 02:31:31;;;;;;;4.05;3.65;;;9.60;99.90;;;;;;5072775;28;20563;-71
2021/06/02 02:34:04;;;;;;;4.30;3.30;;;9.70;99.90;;;;;;5072552;28;20262;-71
2021/06/02 02:36:37;;;;;;;3.85;3.53;;;9.60;99.90;;;;;;5072767;28;20212;-70
2021/06/02 02:39:14;;;;;;;4.10;3.33;;;9.50;99.90;;;;;;5072154;28;20731;-71
2021/06/02 02:41:55;;;;;;;6.25;3.83;;;9.50;99.90;;;;;;5073628;28;20669;-71
2021/06/02 02:44:39;;;;;;;3.80;3.05;;;9.50;99.90;;;;;;5072602;28;20252;-70
2021/06/02 02:47:13;;;;;;;3.92;3.25;;;9.40;99.90;;;;;;5072255;28;20687;-71
2021/06/02 02:49:51;;;;;;;4.05;3.35;;;9.50;99.90;;;;;;5072270;28;20204;-70
2021/06/02 02:52:27;;;;;;;3.47;3.15;;;9.40;99.90;;;;;;5072539;28;20215;-70
2021/06/02 02:55:00;;;;;;;3.50;3.20;;;9.40;99.90;;;;;;5072211;28;20220;-71
2021/06/02 02:57:36;;;;;;;3.13;2.92;;;9.30;99.90;;;;;;5072528;28;20638;-71
2021/06/02 03:00:06;;;;;;;7.13;3.28;;;9.30;99.90;;;;;;5071806;28;20718;-71
2021/06/02 03:02:40;;;;;;;3.88;3.40;;;9.20;99.90;;;;;;5072263;28;20675;-71
2021/06/02 03:05:12;;;;;;;4.75;3.47;;;9.20;99.90;;;;;;5071830;28;20255;-71
2021/06/02 03:07:45;;;;;;;4.35;3.33;;;9.10;99.90;;;;;;5072023;28;20205;-71
2021/06/02 03:10:15;;;;;;;3.92;3.63;;;9.10;99.90;;;;;;5071963;28;20196;-71
2021/06/02 03:12:57;;;;;;;3.90;3.60;;;9.00;99.90;;;;;;5072359;28;20200;-71
2021/06/02 03:15:42;;;;;;;3.50;3.20;;;9.00;99.90;;;;;;5072092;28;20207;-71
2021/06/02 03:18:28;;;;;;;4.15;3.75;;;9.00;99.90;;;;;;5071414;28;20212;-71
2021/06/02 03:21:09;;;;;;;3.45;3.15;;;9.10;99.90;;;;;;5072048;28;20726;-70
2021/06/02 03:23:49;;;;;;;5.75;3.78;;;9.00;99.90;;;;;;5071881;28;20231;-71
2021/06/02 03:26:18;;;;;;;3.65;3.35;;;8.90;99.90;;;;;;5071773;28;20211;-70
2021/06/02 03:28:56;;;;;;;3.60;3.30;;;8.90;99.90;;;;;;5071403;28;20204;-70
2021/06/02 03:31:31;;;;;;;4.57;2.92;;;8.90;99.90;;;;;;5071601;28;20196;-70
2021/06/02 03:34:18;;;;;;;3.80;3.15;;;8.90;99.90;;;;;;5071335;28;20780;-70
2021/06/02 03:37:06;;;;;;;4.45;3.80;;;8.90;99.90;;;;;;5065683;28;20193;-70
2021/06/02 03:39:49;;;;;;;4.30;3.85;;;8.80;99.90;;;;;;5058702;28;20218;-72
2021/06/02 03:42:32;;;;;;;3.40;3.10;;;8.80;99.90;;;;;;5059803;28;20197;-73
2021/06/02 03:45:13;;;;;;;3.80;3.50;;;8.80;99.90;;;;;;5061667;28;20964;-72
2021/06/02 03:47:52;;;;;;;5.70;3.88;;;8.80;99.90;;;;;;5061745;28;20192;-73
2021/06/02 03:50:22;;;;;;;4.33;3.50;;;8.80;99.90;;;;;;5061830;28;20476;-73
2021/06/02 03:53:18;;;;;;;3.65;3.30;;;8.80;99.90;;;;;;5061414;28;20455;-71
2021/06/02 03:55:58;;;;;;;8.80;3.63;;;8.80;99.90;;;;;;5063251;28;20664;-72
2021/06/02 03:58:32;;;;;;;4.03;3.63;;;8.70;99.90;;;;;;5066645;28;20200;-72
2021/06/02 04:01:12;;;;;;;4.28;3.75;;;8.80;99.90;;;;;;5067772;28;20615;-71
2021/06/02 04:03:55;;;;;;;3.65;3.33;;;8.80;99.90;;;;;;5060703;28;20220;-72
2021/06/02 04:06:27;;;;;;;4.30;3.30;;;8.80;99.90;;;;;;5061808;28;20199;-71
2021/06/02 04:09:02;;;;;;;5.60;3.20;;;8.80;99.90;;;;;;5060924;28;20196;-72
2021/06/02 04:11:38;;;;;;;3.85;3.22;;;8.90;99.90;;;;;;5061438;28;20192;-71
2021/06/02 04:14:06;;;;;;;4.43;3.45;;;8.90;99.90;;;;;;5059422;28;20216;-70
2021/06/02 04:16:35;;;;;;;3.50;3.20;;;8.90;99.90;;;;;;5059692;28;20196;-71
2021/06/02 04:19:03;;;;;;;4.00;3.45;;;9.00;99.90;;;;;;5060020;28;20204;-71
2021/06/02 04:21:32;;;;;;;5.95;3.72;;;9.00;99.90;;;;;;5060549;28;20193;-70
2021/06/02 04:24:02;;;;;;;4.40;4.00;;;9.00;99.90;;;;;;5058949;28;20216;-71
2021/06/02 04:26:31;;;;;;;3.90;3.53;;;9.00;99.90;;;;;;5052985;28;20687;-71
2021/06/02 04:29:00;;;;;;;4.30;3.90;;;9.00;99.90;;;;;;5049933;28;20205;-71
2021/06/02 04:31:28;;;;;;;4.13;3.72;;;9.10;99.90;;;;;;5066705;28;20196;-71
2021/06/02 04:33:57;;;;;;;4.07;3.35;;;9.10;99.90;;;;;;5069855;28;20629;-71
2021/06/02 04:36:25;;;;;;;3.92;3.63;;;9.20;99.90;;;;;;5070069;28;20584;-71
2021/06/02 04:38:53;;;;;;;4.72;4.00;;;9.30;99.90;;;;;;5069967;28;20246;-71
2021/06/02 04:41:22;;;;;;;4.13;3.60;;;9.40;99.90;;;;;;5070364;28;20571;-71
2021/06/02 04:43:50;;;;;;;3.55;3.25;;;9.50;99.90;;;;;;5070198;28;20258;-71
2021/06/02 04:46:19;;;;;;;5.18;4.00;;;9.50;99.90;;;;;;5070245;28;20208;-71
2021/06/02 04:48:45;;;;;;;5.55;4.43;;;9.60;99.90;;;;;;5070154;28;20266;-71
2021/06/02 04:51:38;;;;;;;3.65;3.30;;;9.60;99.90;;;;;;5070057;28;20722;-71
2021/06/02 04:54:34;;;;;;;3.50;3.20;;;9.70;99.90;;;;;;5069652;28;20227;-71
2021/06/02 04:57:24;;;;;;;4.28;3.88;;;9.80;99.90;;;;;;5069961;28;20579;-71
2021/06/02 05:00:15;;;;;;;4.50;4.10;;;9.80;99.90;;;;;;5069813;28;20723;-71
2021/06/02 05:03:28;;;;;;;5.32;4.03;;;9.90;99.90;;;;;;5070234;28;20717;-71
2021/06/02 05:06:23;;;;;;;4.63;3.90;;;10.10;99.90;;;;;;5070145;28;20227;-71
2021/06/02 05:09:07;;;;;;;4.25;3.85;;;10.20;99.90;;;;;;5069889;28;20208;-71
2021/06/02 05:12:17;;;;;;;4.25;3.90;;;10.30;99.90;;;;;;5070200;28;20204;-71
2021/06/02 05:15:28;;;;;;;4.47;4.07;;;10.40;99.90;;;;;;5069984;28;20253;-71
2021/06/02 05:18:22;;;;;;;4.65;4.18;;;10.60;99.90;;;;;;5069472;28;20205;-71
2021/06/02 05:24:44;;;;;;;4.68;3.75;;;10.90;99.90;;;;;;5069881;28;20246;-71
2021/06/02 05:27:53;;;;;;;4.72;4.10;;;11.00;99.90;;;;;;5069883;28;20204;-71
2021/06/02 05:30:41;;;;;;;4.47;4.07;;;11.10;99.90;;;;;;5049359;28;20223;-71
2021/06/02 05:34:00;;;;;;;6.05;4.30;;;11.30;99.90;;;;;;5073421;28;20603;-70
2021/06/02 05:37:02;;;;;;;5.57;4.60;;;11.40;99.90;;;;;;5073598;28;20208;-70
2021/06/02 05:39:52;;;;;;;7.88;5.22;;;11.60;99.90;;;;;;5073388;28;20226;-71
2021/06/02 05:42:21;;;;;;;5.03;4.63;;;11.80;99.90;;;;;;5073242;28;20204;-71
2021/06/02 05:45:22;;;;;;;7.50;4.93;;;11.90;99.90;;;;;;5073465;28;20220;-70
2021/06/02 05:48:35;;;;;;;6.82;4.85;;;12.10;99.90;;;;;;5073601;28;20512;-71
2021/06/02 05:51:32;;;;;;;6.60;4.77;;;12.20;99.90;;;;;;5073138;28;20199;-71
2021/06/02 05:54:24;;;;;;;5.30;4.50;;;12.30;99.90;;;;;;5072959;28;20482;-71
2021/06/02 05:57:29;;;;;;;8.37;4.30;;;12.50;99.90;;;;;;5073111;28;20462;-71
2021/06/02 06:00:28;;;;;;;5.93;4.43;;;12.60;99.90;;;;;;5072743;28;21005;-71
2021/06/02 06:03:27;;;;;;;9.37;4.50;;;12.80;99.90;;;;;;5039020;28;20473;-71
2021/06/02 06:06:32;;;;;;;5.07;4.20;;;13.00;99.90;;;;;;5073072;28;20462;-70
2021/06/02 06:09:46;;;;;;;3.87;3.57;;;13.20;99.90;;;;;;5065744;28;20462;-71
2021/06/02 06:12:49;;;;;;;5.37;3.67;;;13.40;99.90;;;;;;5073000;28;20886;-71
2021/06/02 06:16:06;;;;;;;4.00;3.60;;;13.70;99.90;;;;;;5072639;28;20478;-71
2021/06/02 06:19:05;;;;;;;3.43;2.73;;;13.90;99.90;;;;;;5024953;28;20503;-71
2021/06/02 06:22:09;;;;;;;3.20;2.90;;;14.10;99.90;;;;;;5072945;28;20463;-71
2021/06/02 06:24:43;;;;;;;3.53;2.67;;;14.30;99.90;;;;;;5072679;28;20485;-71
2021/06/02 06:27:16;;;;;;;3.07;2.87;;;14.50;99.90;;;;;;5072468;28;20894;-71
2021/06/02 06:29:53;;;;;;;3.17;2.87;;;14.70;99.90;;;;;;5072341;28;20970;-71
2021/06/02 06:32:21;;;;;;;4.30;2.73;;;14.80;99.90;;;;;;5072663;28;20462;-71
2021/06/02 06:34:49;;;;;;;3.40;3.10;;;15.00;99.60;;;;;;5072314;28;20593;-71
2021/06/02 06:37:17;;;;;;;2.77;2.53;;;15.10;98.90;;;;;;5072334;28;20470;-71
2021/06/02 06:39:50;;;;;;;2.90;2.60;;;15.20;98.00;;;;;;5072109;28;20536;-71
2021/06/02 06:42:20;;;;;;;2.90;2.63;;;15.30;98.10;;;;;;5071886;28;20477;-71
2021/06/02 06:44:50;;;;;;;3.57;2.40;;;15.50;97.40;;;;;;5072109;28;20906;-71
2021/06/02 06:47:17;;;;;;;2.60;2.40;;;15.60;97.50;;;;;;5072092;28;20902;-71
2021/06/02 06:49:47;;;;;;;3.30;3.00;;;15.60;96.80;;;;;;5072157;28;20986;-71
2021/06/02 06:52:15;;;;;;;3.83;2.43;;;15.70;96.50;;;;;;5072141;28;20898;-71
2021/06/02 06:54:42;;;;;;;3.00;2.40;;;15.80;97.00;;;;;;5072368;28;20478;-71
2021/06/02 06:57:10;;;;;;;2.50;2.30;;;15.90;94.80;;;;;;5071960;28;20462;-71
2021/06/02 06:59:39;;;;;;;3.33;3.03;;;16.00;93.30;;;;;;5069275;28;21269;-71
2021/06/02 07:02:05;;;;;;;3.23;2.30;;;16.00;94.60;;;;;;5069190;28;20517;-71
2021/06/02 07:04:33;;;;;;;3.43;2.60;;;16.10;96.00;;;;;;5069431;28;20552;-71
2021/06/02 07:07:00;;;;;;;2.50;2.30;;;16.20;97.50;;;;;;5070581;28;20527;-71
2021/06/02 07:09:26;;;;;;;3.30;2.53;;;16.30;97.60;;;;;;5069491;28;20922;-71
2021/06/02 07:11:56;;;;;;;3.50;2.63;;;16.50;98.00;;;;;;5071629;28;20837;-71
2021/06/02 07:14:28;;;;;;;4.10;2.47;;;16.60;97.40;;;;;;5070196;28;20977;-71
2021/06/02 07:16:57;;;;;;;2.80;2.27;;;16.70;96.80;;;;;;5071750;28;20850;-71
2021/06/02 07:19:23;;;;;;;2.30;2.10;;;16.80;97.00;;;;;;5071367;28;20496;-71
2021/06/02 07:21:51;;;;;;;2.50;2.30;;;17.00;97.10;;;;;;5060306;28;20505;-72
2021/06/02 07:24:18;;;;;;;2.40;2.20;;;17.10;94.50;;;;;;5070186;28;20486;-72
2021/06/02 07:26:44;;;;;;;2.40;2.20;;;17.20;95.50;;;;;;5070270;28;20469;-72
2021/06/02 07:29:10;;;;;;;2.50;2.30;;;17.30;96.00;;;;;;5068652;28;20463;-72
2021/06/02 07:31:38;;;;;;;3.03;2.47;;;17.50;95.90;;;;;;5070972;28;20511;-71
2021/06/02 07:34:06;;;;;;;4.83;2.63;;;17.60;95.80;;;;;;5070795;28;20489;-71
2021/06/02 07:36:33;;;;;;;4.07;3.37;;;17.60;95.10;;;;;;5071376;28;20845;-71
2021/06/02 07:38:59;;;;;;;4.50;3.10;;;17.80;96.30;;;;;;5070559;28;20981;-72
2021/06/02 07:41:25;;;;;;;9.30;3.03;;;17.90;96.60;;;;;;5071017;28;20898;-71
2021/06/02 07:43:51;;;;;;;5.50;3.17;;;18.00;96.70;;;;;;5070784;28;20486;-72
2021/06/02 07:46:18;;;;;;;3.97;2.63;;;18.10;93.80;;;;;;5070715;28;20470;-71
2021/06/02 07:48:45;;;;;;;3.50;2.77;;;18.20;94.50;;;;;;5070453;28;20463;-72
2021/06/02 07:51:11;;;;;;;3.80;2.90;;;18.30;95.20;;;;;;5070650;28;20953;-72
2021/06/02 07:53:37;;;;;;;4.27;3.00;;;18.40;93.70;;;;;;5070126;28;20557;-72
2021/06/02 07:56:04;;;;;;;5.30;2.60;;;18.50;93.50;;;;;;5070722;28;20462;-71
2021/06/02 07:58:31;;;;;;;5.50;3.97;;;18.50;95.80;;;;;;5070557;28;20840;-71
2021/06/02 08:00:57;;;;;;;4.23;2.80;;;18.60;94.10;;;;;;5070587;28;21008;-72
2021/06/02 08:03:23;;;;;;;4.00;2.90;;;18.70;95.20;;;;;;5070718;28;20482;-71
2021/06/02 08:05:51;;;;;;;4.07;2.50;;;18.80;94.80;;;;;;5071121;28;20528;-72
2021/06/02 08:08:17;;;;;;;4.73;3.23;;;18.90;93.70;;;;;;5070459;28;20485;-71
2021/06/02 08:10:43;;;;;;;4.27;2.83;;;19.00;94.60;;;;;;5070852;28;20991;-71
2021/06/02 08:13:10;;;;;;;5.50;3.23;;;19.10;96.50;;;;;;5070601;28;20512;-71
2021/06/02 08:15:36;;;;;;;8.03;5.07;;;19.20;96.70;;;;;;5070890;28;20462;-71
2021/06/02 08:18:04;;;;;;;9.73;3.23;;;19.30;96.90;;;;;;5070138;28;20560;-72
2021/06/02 08:20:31;;;;;;;3.63;2.60;;;19.50;96.10;;;;;;5070732;28;20851;-71
2021/06/02 08:22:58;;;;;;;5.00;2.90;;;19.60;95.20;;;;;;5070242;28;20466;-72
2021/06/02 08:25:24;;;;;;;5.83;2.53;;;19.70;92.40;;;;;;5070710;28;20455;-71
2021/06/02 08:27:51;;;;;;;3.70;2.70;;;19.70;92.00;;;;;;5070268;28;20884;-71
2021/06/02 08:30:18;;;;;;;2.97;2.77;;;19.80;92.00;;;;;;5070462;28;20516;-72
2021/06/02 08:32:45;;;;;;;5.00;2.77;;;19.80;92.70;;;;;;5070296;28;20985;-72
2021/06/02 08:35:15;;;;;;;2.63;2.40;;;19.90;93.40;;;;;;5070176;28;20486;-71
2021/06/02 08:37:42;;;;;;;2.93;2.67;;;20.10;95.00;;;;;;5070294;28;20505;-71
2021/06/02 08:40:10;;;;;;;4.80;2.57;;;20.20;90.90;;;;;;5069972;28;20894;-71
2021/06/02 08:42:41;;;;;;;3.40;3.10;;;20.20;90.30;;;;;;5070345;28;20478;-71
2021/06/02 08:45:08;;;;;;;3.07;2.63;;;20.30;87.70;;;;;;5070082;28;20514;-71
2021/06/02 08:47:34;;;;;;;2.70;2.20;;;20.30;89.90;;;;;;5070419;28;20463;-71
2021/06/02 08:50:01;;;;;;;3.20;2.70;;;20.40;91.10;;;;;;5070038;28;20458;-72
2021/06/02 08:52:27;;;;;;;4.47;2.37;;;20.50;92.60;;;;;;5070532;28;20462;-71
2021/06/02 08:54:54;;;;;;;3.43;2.60;;;20.70;92.60;;;;;;5070185;28;20502;-71
2021/06/02 08:57:22;;;;;;;3.00;2.70;;;20.80;93.60;;;;;;5070455;28;20498;-71
2021/06/02 08:59:48;;;;;;;3.60;2.37;;;21.00;91.70;;;;;;5069805;28;20478;-72
2021/06/02 09:02:16;;;;;;;4.27;2.60;;;21.10;90.30;;;;;;5069992;28;20466;-71
2021/06/02 09:04:42;;;;;;;3.10;2.70;;;21.20;91.50;;;;;;5070493;28;21036;-71
2021/06/02 09:07:09;;;;;;;3.53;2.70;;;21.30;90.70;;;;;;5074107;28;20459;-71
2021/06/02 09:09:35;;;;;;;2.70;2.50;;;21.40;91.30;;;;;;5073859;28;20469;-71
2021/06/02 09:12:08;;;;;;;3.30;2.27;;;21.60;92.60;;;;;;5073961;28;20520;-71
2021/06/02 09:14:38;;;;;;;2.80;2.43;;;21.80;90.60;;;;;;5074156;28;20574;-71
2021/06/02 09:17:06;;;;;;;2.53;2.33;;;21.90;93.40;;;;;;5073917;28;20466;-71
2021/06/02 09:19:38;;;;;;;2.70;2.47;;;22.10;92.10;;;;;;5073339;28;20476;-71
2021/06/02 09:22:06;;;;;;;2.57;2.30;;;22.20;92.00;;;;;;5073618;28;20494;-71
2021/06/02 09:24:46;;;;;;;2.90;2.70;;;22.30;90.80;;;;;;5073705;28;20523;-71
2021/06/02 09:27:12;;;;;;;4.40;2.50;;;22.40;91.00;;;;;;5073683;28;20466;-72
2021/06/02 09:29:51;;;;;;;2.80;2.60;;;22.60;90.60;;;;;;5073599;28;20514;-71
2021/06/02 09:32:19;;;;;;;4.27;2.63;;;22.70;91.80;;;;;;5073704;28;20969;-71
2021/06/02 09:34:45;;;;;;;2.63;2.43;;;22.80;88.30;;;;;;5073374;28;20497;-71
2021/06/02 09:37:12;;;;;;;3.80;2.73;;;22.80;90.40;;;;;;5073484;28;20471;-71
2021/06/02 09:39:40;;;;;;;2.37;2.17;;;23.00;90.40;;;;;;5073059;28;20470;-71
2021/06/02 09:42:18;;;;;;;2.30;2.10;;;23.10;91.20;;;;;;5073435;28;20494;-71
2021/06/02 09:45:02;;;;;;;2.60;2.40;;;23.20;90.50;;;;;;5073381;28;20865;-71
2021/06/02 09:47:41;;;;;;;4.50;2.70;;;23.30;91.40;;;;;;5073829;28;20477;-71
2021/06/02 09:50:08;;;;;;;3.07;2.80;;;23.40;88.60;;;;;;5073406;28;20807;-71
2021/06/02 09:52:39;;;;;;;2.57;2.37;;;23.50;90.10;;;;;;5073533;28;20465;-71
2021/06/02 09:55:18;;;;;;;3.80;2.53;;;23.50;89.30;;;;;;5073133;28;20478;-71
2021/06/02 09:57:45;;;;;;;2.47;2.27;;;23.60;90.70;;;;;;5073251;28;20462;-72
2021/06/02 10:00:15;;;;;;;2.83;2.40;;;23.70;90.60;;;;;;5072981;28;20655;-71
2021/06/02 10:02:41;;;;;;;2.70;2.50;;;23.90;87.70;;;;;;5073323;28;20815;-71
2021/06/02 10:05:10;;;;;;;2.63;2.23;;;23.90;88.40;;;;;;5072920;28;20989;-71
2021/06/02 10:07:44;;;;;;;2.80;2.60;;;24.00;86.40;;;;;;5073123;28;20466;-72
2021/06/02 10:10:12;;;;;;;3.27;2.67;;;24.20;89.20;;;;;;5072963;28;20454;-71
2021/06/02 10:12:39;;;;;;;3.50;2.30;;;24.20;87.20;;;;;;5073046;28;20462;-72
2021/06/02 10:15:06;;;;;;;2.67;2.47;;;24.30;88.90;;;;;;5072957;28;20822;-71
2021/06/02 10:17:37;;;;;;;3.00;2.70;;;24.40;90.40;;;;;;5072070;28;20462;-71
2021/06/02 10:20:09;;;;;;;4.10;2.90;;;24.60;87.80;;;;;;5072436;28;20489;-72
2021/06/02 10:22:36;;;;;;;7.43;4.97;;;24.60;87.30;;;;;;5072773;28;20512;-71
2021/06/02 10:25:05;;;;;;;6.23;4.30;;;24.70;87.70;;;;;;5072513;28;20478;-71
2021/06/02 10:27:31;;;;;;;5.03;3.97;;;24.90;85.50;;;;;;5072787;28;20465;-71
2021/06/02 10:29:58;;;;;;;4.37;3.97;;;25.00;87.50;;;;;;5072166;28;20455;-71
2021/06/02 10:32:25;;;;;;;4.40;3.77;;;25.00;82.60;;;;;;5072835;28;20462;-71
2021/06/02 10:34:54;;;;;;;6.30;5.13;;;25.00;82.90;;;;;;5072141;28;20486;-71
2021/06/02 10:37:22;;;;;;;3.10;2.63;;;25.00;85.00;;;;;;5072637;28;20462;-71
2021/06/02 10:39:56;;;;;;;5.73;4.73;;;25.00;82.90;;;;;;5071965;28;20528;-71
2021/06/02 10:42:28;;;;;;;3.30;3.00;;;25.10;85.60;;;;;;5072443;28;20520;-71
2021/06/02 10:44:58;;;;;;;7.03;4.90;;;25.10;78.30;;;;;;5071959;28;20490;-71
2021/06/02 10:47:26;;;;;;;6.27;3.50;;;25.20;83.90;;;;;;5069203;28;20466;-71
2021/06/02 10:49:54;;;;;;;4.93;3.10;;;25.30;83.70;;;;;;5072039;28;20489;-71
2021/06/02 10:52:37;;;;;;;4.27;3.87;;;25.40;81.90;;;;;;5071201;28;21108;-71
2021/06/02 10:55:33;;;;;;;3.77;3.40;;;25.40;83.30;;;;;;5070146;28;20489;-71
2021/06/02 10:58:23;;;;;;;3.10;2.70;;;25.50;84.50;;;;;;5078972;28;20458;-71
2021/06/02 11:00:51;;;;;;;3.93;3.53;;;25.60;76.30;;;;;;5072108;28;20486;-71
2021/06/02 11:03:19;;;;;;;3.00;2.70;;;25.70;81.50;;;;;;5072033;28;20490;-71
2021/06/02 11:05:56;;;;;;;3.13;2.70;;;25.80;83.20;;;;;;5071949;28;20459;-71
2021/06/02 11:08:22;;;;;;;3.53;2.80;;;26.00;82.70;;;;;;5071099;28;20468;-71
2021/06/02 11:10:54;;;;;;;3.50;2.70;;;26.10;78.50;;;;;;5071391;28;20815;-71
2021/06/02 11:13:20;;;;;;;3.80;2.67;;;26.10;80.70;;;;;;5071170;28;20486;-71
2021/06/02 11:15:48;;;;;;;2.90;2.27;;;26.10;79.80;;;;;;5071336;28;20462;-71
2021/06/02 11:18:21;;;;;;;3.17;2.50;;;26.20;81.80;;;;;;5071075;28;20517;-71
2021/06/02 11:20:51;;;;;;;4.17;2.90;;;26.20;80.00;;;;;;5071966;28;21021;-71
2021/06/02 11:23:20;;;;;;;4.00;2.80;;;26.10;77.60;;;;;;5069332;28;20954;-71
2021/06/02 11:25:47;;;;;;;3.97;2.90;;;26.20;79.50;;;;;;5070047;28;20454;-71
2021/06/02 11:28:42;;;;;;;2.70;2.37;;;26.30;81.80;;;;;;5070122;28;20826;-71
2021/06/02 11:31:25;;;;;;;2.70;2.30;;;26.50;78.40;;;;;;5070377;28;20452;-71
2021/06/02 11:33:53;;;;;;;3.63;2.87;;;26.40;79.40;;;;;;5071181;28;20515;-71
2021/06/02 11:36:20;;;;;;;2.93;2.70;;;26.50;79.80;;;;;;5070879;28;20462;-70
2021/06/02 11:38:47;;;;;;;4.30;2.40;;;26.60;80.00;;;;;;5070514;28;20465;-71
2021/06/02 11:41:14;;;;;;;4.80;3.00;;;26.60;80.50;;;;;;5070980;28;20482;-71
2021/06/02 11:43:41;;;;;;;2.20;2.03;;;26.80;79.70;;;;;;5070966;28;20484;-71
2021/06/02 11:46:07;;;;;;;2.80;2.60;;;26.80;81.20;;;;;;5071192;28;20469;-71
2021/06/02 11:48:36;;;;;;;3.00;2.77;;;26.90;80.30;;;;;;5070817;28;20895;-70
2021/06/02 11:51:06;;;;;;;3.90;2.50;;;27.00;80.70;;;;;;5070934;28;20536;-71
2021/06/02 11:53:38;;;;;;;3.73;2.60;;;27.10;80.50;;;;;;5070988;28;20522;-71
2021/06/02 11:56:05;;;;;;;2.70;2.50;;;27.10;79.30;;;;;;5070673;28;20726;-71
2021/06/02 11:58:32;;;;;;;8.20;3.23;;;27.10;77.00;;;;;;5070525;28;20832;-69
2021/06/02 12:00:58;;;;;;;2.77;2.57;;;27.10;79.40;;;;;;5070511;28;21076;-71
2021/06/02 12:03:25;;;;;;;3.10;2.53;;;27.10;81.10;;;;;;5070587;28;20490;-69
2021/06/02 12:05:53;;;;;;;2.77;2.57;;;27.30;79.60;;;;;;5070774;28;20507;-70
2021/06/02 12:08:22;;;;;;;3.00;2.70;;;27.30;80.30;;;;;;5070271;28;20465;-70
2021/06/02 12:10:52;;;;;;;2.80;2.60;;;27.40;78.70;;;;;;5070791;28;20801;-72
2021/06/02 12:13:19;;;;;;;3.67;2.20;;;27.50;75.10;;;;;;5070373;28;20470;-70
2021/06/02 12:15:47;;;;;;;5.30;2.80;;;27.50;78.00;;;;;;5070685;28;20504;-70
2021/06/02 12:18:32;;;;;;;2.63;2.43;;;27.50;78.40;;;;;;5070104;28;20552;-70
2021/06/02 12:21:11;;;;;;;3.27;2.40;;;27.30;75.80;;;;;;5070477;28;20498;-70
2021/06/02 12:23:50;;;;;;;3.53;2.60;;;27.10;76.60;;;;;;5070569;28;20483;-71
2021/06/02 12:26:19;;;;;;;3.70;2.57;;;27.30;77.10;;;;;;5070392;28;20464;-71
2021/06/02 12:28:46;;;;;;;5.53;2.70;;;27.30;81.00;;;;;;5070316;28;20455;-72
2021/06/02 12:31:31;;;;;;;4.50;2.63;;;27.40;77.30;;;;;;5070395;28;20459;-70
2021/06/02 12:34:03;;;;;;;2.70;2.50;;;27.40;76.70;;;;;;5070270;28;20482;-70
2021/06/02 12:36:29;;;;;;;2.90;2.67;;;27.40;75.60;;;;;;5070080;28;20464;-72
2021/06/02 12:38:55;;;;;;;2.97;2.67;;;27.50;79.40;;;;;;5069774;28;20460;-69
2021/06/02 12:41:25;;;;;;;3.20;2.50;;;27.60;77.50;;;;;;5069752;28;20488;-70
2021/06/02 12:43:52;;;;;;;2.77;2.57;;;27.60;75.40;;;;;;5070341;28;20507;-70
2021/06/02 12:46:18;;;;;;;3.10;2.37;;;27.70;74.20;;;;;;5070144;28;20465;-70
2021/06/02 12:48:45;;;;;;;4.00;2.63;;;27.90;72.70;;;;;;5070115;28;20957;-70
2021/06/02 12:51:17;;;;;;;2.87;2.57;;;27.90;74.30;;;;;;5070191;28;20467;-70
2021/06/02 12:53:46;;;;;;;4.00;2.57;;;27.90;75.70;;;;;;5066773;28;20480;-69
2021/06/02 12:56:14;;;;;;;2.93;2.30;;;27.90;75.10;;;;;;5058286;28;20548;-69
2021/06/02 12:58:43;;;;;;;3.50;2.57;;;27.90;71.50;;;;;;5059391;28;20464;-70
2021/06/02 13:01:12;;;;;;;3.33;2.90;;;27.90;74.20;;;;;;5060877;28;20482;-70
2021/06/02 13:03:44;;;;;;;3.07;2.50;;;27.80;73.60;;;;;;5059394;28;20476;-70
2021/06/02 13:06:14;;;;;;;2.97;2.53;;;27.90;74.00;;;;;;5058686;28;20872;-70
2021/06/02 13:08:41;;;;;;;3.83;2.40;;;27.80;68.80;;;;;;5059460;28;20456;-70
2021/06/02 13:11:09;;;;;;;3.90;2.50;;;27.70;73.00;;;;;;5059065;28;20891;-70
2021/06/02 13:13:36;;;;;;;3.00;2.70;;;27.70;73.80;;;;;;5059163;28;21051;-70
2021/06/02 13:16:05;;;;;;;3.07;2.50;;;27.70;70.90;;;;;;5057043;28;20479;-72
2021/06/02 13:18:32;;;;;;;2.90;2.60;;;27.80;74.50;;;;;;5058565;28;20468;-71
2021/06/02 13:21:11;;;;;;;3.27;2.60;;;27.90;74.10;;;;;;5058299;28;20836;-70
2021/06/02 13:23:38;;;;;;;3.03;2.83;;;27.90;71.40;;;;;;5058791;28;20481;-70
2021/06/02 13:26:07;;;;;;;3.60;2.33;;;27.80;70.80;;;;;;5058567;28;20463;-70
2021/06/02 13:28:42;;;;;;;2.90;2.70;;;27.90;74.20;;;;;;5057021;28;20467;-71
2021/06/02 13:31:12;;;;;;;4.40;2.60;;;28.00;69.30;;;;;;5056293;28;20448;-72